Time;durP1;ratioP1;P1;durP2;ratioP2;P2;SDS_P1;SDS_P2;PMS_P1;PMS_P2;Temp;Humidity;BMP_temperature;BMP_pressure;BME280_temperature;BME280_humidity;BME280_pressure;Samples;Min_cycle;Max_cycle;Signal;HPM_P1;HPM_P2
2022/04/22 00:01:50;;;;;;;10.85;5.50;;;;;;;;;;5055443;28;20043;-71
2022/04/22 00:04:16;;;;;;;12.35;6.35;;;;;;;;;;5073107;28;20049;-71
2022/04/22 00:06:42;;;;;;;11.10;5.50;;;;;;;;;;5038156;28;20090;-71
2022/04/22 00:09:08;;;;;;;8.30;4.93;;;;;;;;;;5052299;28;20044;-71
2022/04/22 00:11:34;;;;;;;11.30;6.50;;;;;;;;;;5070561;28;20462;-71
2022/04/22 00:14:01;;;;;;;9.40;5.63;;;;;;;;;;5084500;28;20123;-71
2022/04/22 00:16:28;;;;;;;7.80;5.32;;;;;;;;;;5073372;28;20028;-71
2022/04/22 00:18:55;;;;;;;9.25;5.32;;;;;;;;;;5067996;28;20068;-71
2022/04/22 00:21:21;;;;;;;10.50;6.25;;;;;;;;;;5052976;28;20044;-71
2022/04/22 00:23:47;;;;;;;10.02;5.82;;;;;;;;;;5068981;28;20044;-71
2022/04/22 00:26:13;;;;;;;9.77;5.63;;;;;;;;;;5084320;28;20051;-71
2022/04/22 00:28:40;;;;;;;9.23;5.93;;;;;;;;;;5065650;28;20036;-71
2022/04/22 00:31:06;;;;;;;9.25;5.00;;;;;;;;;;5068134;28;20048;-71
2022/04/22 00:33:32;;;;;;;9.73;6.35;;;;;;;;;;5079313;28;20040;-71
2022/04/22 00:35:58;;;;;;;10.85;6.32;;;;;;;;;;5056047;28;20044;-71
2022/04/22 00:38:24;;;;;;;10.98;5.95;;;;;;;;;;5068737;28;20043;-71
2022/04/22 00:40:52;;;;;;;10.43;5.93;;;;;;;;;;5046507;28;20040;-71
2022/04/22 00:43:18;;;;;;;11.88;6.07;;;;;;;;;;5070492;28;20071;-72
2022/04/22 00:45:45;;;;;;;11.07;7.13;;;;;;;;;;5082200;28;20097;-71
2022/04/22 00:48:11;;;;;;;9.63;5.60;;;;;;;;;;5061668;28;20520;-72
2022/04/22 00:50:38;;;;;;;12.10;6.38;;;;;;;;;;5051821;28;20040;-71
2022/04/22 00:53:05;;;;;;;12.35;6.53;;;;;;;;;;5067508;28;20040;-72
2022/04/22 00:55:31;;;;;;;13.85;5.45;;;;;;;;;;5072596;28;20048;-71
2022/04/22 00:57:59;;;;;;;8.10;5.50;;;;;;;;;;5046448;28;20079;-71
2022/04/22 01:00:25;;;;;;;10.50;5.88;;;;;;;;;;5086090;28;20164;-71
2022/04/22 01:02:51;;;;;;;12.32;6.45;;;;;;;;;;5075297;28;20079;-71
2022/04/22 01:10:47;;;;;;;10.80;5.85;;;;;;;;;;5057512;28;20204;-72
2022/04/22 01:13:15;;;;;;;11.00;6.35;;;;;;;;;;5074228;28;20121;-71
2022/04/22 01:15:42;;;;;;;9.43;7.47;;;;;;;;;;5079137;28;20152;-71
2022/04/22 01:18:09;;;;;;;10.02;6.63;;;;;;;;;;5069587;28;20087;-71
2022/04/22 01:20:35;;;;;;;10.00;6.28;;;;;;;;;;5033538;28;20040;-71
2022/04/22 01:23:01;;;;;;;10.25;5.82;;;;;;;;;;5083354;28;20036;-71
2022/04/22 01:25:27;;;;;;;11.10;7.22;;;;;;;;;;5069006;28;20039;-71
2022/04/22 01:27:54;;;;;;;9.18;5.88;;;;;;;;;;5052989;28;20047;-71
2022/04/22 01:30:24;;;;;;;10.15;6.55;;;;;;;;;;5059853;28;20048;-71
2022/04/22 01:32:51;;;;;;;10.07;6.40;;;;;;;;;;5074089;28;20478;-71
2022/04/22 01:35:21;;;;;;;10.30;6.22;;;;;;;;;;5069930;28;20036;-71
2022/04/22 01:37:47;;;;;;;9.57;6.35;;;;;;;;;;5068310;28;20094;-71
2022/04/22 01:40:14;;;;;;;11.77;6.18;;;;;;;;;;5054155;28;20529;-71
2022/04/22 01:42:40;;;;;;;10.75;6.13;;;;;;;;;;5084163;28;20078;-71
2022/04/22 01:45:07;;;;;;;9.55;6.60;;;;;;;;;;5050736;28;20122;-71
2022/04/22 01:47:34;;;;;;;9.85;6.25;;;;;;;;;;5071075;28;20066;-71
2022/04/22 01:50:00;;;;;;;10.25;6.28;;;;;;;;;;5069439;28;20041;-71
2022/04/22 01:52:26;;;;;;;11.40;6.85;;;;;;;;;;5063305;28;20561;-71
2022/04/22 01:54:54;;;;;;;10.57;6.07;;;;;;;;;;5082799;28;21333;-71
2022/04/22 01:57:20;;;;;;;11.15;6.47;;;;;;;;;;5070990;28;20074;-71
2022/04/22 01:59:48;;;;;;;11.95;6.63;;;;;;;;;;5072098;28;20051;-71
2022/04/22 02:02:15;;;;;;;15.60;7.13;;;;;;;;;;5080545;28;20054;-71
2022/04/22 02:04:41;;;;;;;10.35;6.28;;;;;;;;;;5058994;28;20060;-71
2022/04/22 02:07:07;;;;;;;10.82;6.65;;;;;;;;;;5066682;28;20048;-71
2022/04/22 02:09:33;;;;;;;8.57;6.18;;;;;;;;;;5070162;28;20051;-71
2022/04/22 02:11:59;;;;;;;12.27;7.10;;;;;;;;;;5060748;28;20089;-71
2022/04/22 02:14:26;;;;;;;14.27;6.65;;;;;;;;;;5050323;28;20029;-71
2022/04/22 02:16:55;;;;;;;10.18;5.80;;;;;;;;;;5084014;28;20057;-71
2022/04/22 02:19:21;;;;;;;10.30;6.80;;;;;;;;;;5078691;28;20038;-71
2022/04/22 02:21:47;;;;;;;11.50;7.00;;;;;;;;;;5081348;28;20082;-71
2022/04/22 02:24:13;;;;;;;11.73;6.63;;;;;;;;;;5057826;28;20215;-71
2022/04/22 02:29:24;;;;;;;9.68;6.25;;;;;;;;;;5081091;28;20052;-71
2022/04/22 02:31:52;;;;;;;10.90;5.70;;;;;;;;;;5070513;28;20036;-71
2022/04/22 02:34:22;;;;;;;8.65;6.05;;;;;;;;;;5065705;28;20041;-71
2022/04/22 02:36:48;;;;;;;9.52;5.40;;;;;;;;;;5076105;28;20504;-71
2022/04/22 02:39:15;;;;;;;9.73;6.47;;;;;;;;;;5068950;28;20128;-71
2022/04/22 02:47:11;;;;;;;11.40;5.97;;;;;;;;;;5074408;28;20040;-71
2022/04/22 02:49:38;;;;;;;12.70;6.20;;;;;;;;;;5089087;28;20044;-71
2022/04/22 02:52:05;;;;;;;8.48;5.63;;;;;;;;;;5071758;28;20400;-70
2022/04/22 02:54:34;;;;;;;10.27;5.72;;;;;;;;;;5085873;28;20059;-71
2022/04/22 02:57:01;;;;;;;8.75;5.38;;;;;;;;;;5087555;28;20054;-72
2022/04/22 02:59:28;;;;;;;12.30;5.20;;;;;;;;;;5066716;28;20115;-71
2022/04/22 03:01:55;;;;;;;8.55;5.00;;;;;;;;;;5071236;28;20369;-70
2022/04/22 03:04:21;;;;;;;8.00;5.07;;;;;;;;;;5085452;28;20426;-71
2022/04/22 03:06:48;;;;;;;8.27;5.18;;;;;;;;;;5069976;28;20036;-70
2022/04/22 03:09:14;;;;;;;11.52;5.97;;;;;;;;;;5068921;28;20054;-71
2022/04/22 03:11:41;;;;;;;9.20;5.13;;;;;;;;;;5040616;28;20047;-70
2022/04/22 03:14:07;;;;;;;10.00;5.43;;;;;;;;;;5067663;28;20123;-70
2022/04/22 03:16:35;;;;;;;7.75;5.18;;;;;;;;;;5056177;28;20074;-71
2022/04/22 03:19:01;;;;;;;8.57;5.15;;;;;;;;;;5067373;28;20547;-70
2022/04/22 03:21:27;;;;;;;9.27;5.60;;;;;;;;;;5058840;28;20032;-70
2022/04/22 03:23:53;;;;;;;11.85;6.20;;;;;;;;;;5069069;28;20039;-70
2022/04/22 03:26:20;;;;;;;8.40;5.63;;;;;;;;;;5078337;28;20091;-71
2022/04/22 03:28:47;;;;;;;7.85;5.40;;;;;;;;;;5084859;28;20054;-70
2022/04/22 03:31:13;;;;;;;7.40;5.53;;;;;;;;;;5065606;28;20379;-70
2022/04/22 03:33:39;;;;;;;7.93;4.40;;;;;;;;;;5088974;28;20036;-70
2022/04/22 03:36:05;;;;;;;8.32;5.75;;;;;;;;;;5086364;28;20028;-70
2022/04/22 03:38:31;;;;;;;9.18;5.05;;;;;;;;;;5061829;28;20047;-70
2022/04/22 03:40:58;;;;;;;10.05;5.72;;;;;;;;;;5081620;28;20460;-71
2022/04/22 03:43:25;;;;;;;8.18;4.85;;;;;;;;;;5066029;28;20044;-70
2022/04/22 03:45:51;;;;;;;9.32;5.75;;;;;;;;;;5060442;28;20093;-70
2022/04/22 03:48:17;;;;;;;11.90;6.18;;;;;;;;;;5072689;28;20078;-71
2022/04/22 03:50:43;;;;;;;9.50;4.70;;;;;;;;;;5085638;28;20055;-70
2022/04/22 03:53:11;;;;;;;13.20;5.25;;;;;;;;;;5085569;28;20478;-70
2022/04/22 03:55:38;;;;;;;17.13;5.75;;;;;;;;;;5061815;28;20522;-70
2022/04/22 03:58:10;;;;;;;9.52;5.60;;;;;;;;;;5078186;28;20054;-70
2022/04/22 04:00:44;;;;;;;13.68;5.55;;;;;;;;;;5053933;28;20048;-70
2022/04/22 04:03:11;;;;;;;6.38;4.75;;;;;;;;;;5058841;28;20036;-70
2022/04/22 04:05:38;;;;;;;9.50;5.95;;;;;;;;;;5059629;28;20490;-70
2022/04/22 04:08:05;;;;;;;10.10;6.50;;;;;;;;;;5072361;28;20482;-70
2022/04/22 04:16:02;;;;;;;7.82;4.70;;;;;;;;;;5056979;28;20053;-70
2022/04/22 04:18:32;;;;;;;15.05;6.22;;;;;;;;;;5062267;28;20117;-70
2022/04/22 04:23:44;;;;;;;11.30;5.35;;;;;;;;;;5067569;28;20043;-70
2022/04/22 04:26:12;;;;;;;10.20;5.85;;;;;;;;;;5062567;28;20428;-70
2022/04/22 04:28:38;;;;;;;7.65;5.15;;;;;;;;;;5065552;28;20401;-70
2022/04/22 04:31:06;;;;;;;7.72;4.90;;;;;;;;;;5060292;28;20336;-70
2022/04/22 04:33:32;;;;;;;8.93;5.00;;;;;;;;;;5080953;28;20040;-71
2022/04/22 04:35:59;;;;;;;7.57;5.00;;;;;;;;;;5072908;28;20044;-70
2022/04/22 04:38:26;;;;;;;10.60;5.35;;;;;;;;;;5076798;28;20449;-70
2022/04/22 04:40:52;;;;;;;7.72;5.10;;;;;;;;;;5053098;28;20103;-70
2022/04/22 04:43:20;;;;;;;7.85;5.18;;;;;;;;;;5083274;28;20068;-70
2022/04/22 04:45:46;;;;;;;6.82;4.07;;;;;;;;;;5063130;28;20401;-71
2022/04/22 04:48:13;;;;;;;6.35;4.60;;;;;;;;;;5059141;28;20047;-70
2022/04/22 04:50:40;;;;;;;7.63;4.82;;;;;;;;;;5068660;28;20489;-70
2022/04/22 04:53:06;;;;;;;7.15;4.38;;;;;;;;;;5053528;28;20051;-70
2022/04/22 04:55:32;;;;;;;8.45;5.57;;;;;;;;;;5068482;28;20048;-70
2022/04/22 04:57:59;;;;;;;7.10;4.47;;;;;;;;;;5088680;28;20040;-70
2022/04/22 05:00:25;;;;;;;11.25;5.65;;;;;;;;;;5070135;28;20036;-70
2022/04/22 05:02:51;;;;;;;7.43;4.30;;;;;;;;;;5086678;28;20033;-70
2022/04/22 05:05:17;;;;;;;9.20;4.93;;;;;;;;;;5082515;28;20086;-70
2022/04/22 05:08:02;;;;;;;8.60;5.30;;;;;;;;;;5085283;28;20038;-71
2022/04/22 05:10:31;;;;;;;11.60;4.82;;;;;;;;;;5086069;28;20481;-70
2022/04/22 05:12:59;;;;;;;7.28;4.45;;;;;;;;;;5088776;28;20064;-70
2022/04/22 05:15:26;;;;;;;6.80;4.25;;;;;;;;;;5087565;28;20028;-71
2022/04/22 05:17:53;;;;;;;9.93;5.93;;;;;;;;;;5064398;28;20079;-70
2022/04/22 05:20:25;;;;;;;7.65;4.55;;;;;;;;;;5040483;28;20040;-70
2022/04/22 05:22:51;;;;;;;5.65;3.72;;;;;;;;;;5073868;28;20043;-71
2022/04/22 05:25:17;;;;;;;6.75;4.38;;;;;;;;;;5072942;28;20255;-70
2022/04/22 05:27:44;;;;;;;8.23;4.43;;;;;;;;;;5065764;28;20067;-70
2022/04/22 05:32:56;;;;;;;9.05;4.38;;;;;;;;;;5088161;28;20043;-69
2022/04/22 05:35:26;;;;;;;6.03;3.45;;;;;;;;;;5060922;28;20047;-70
2022/04/22 05:37:56;;;;;;;8.73;4.65;;;;;;;;;;5067358;28;20166;-72
2022/04/22 05:40:33;;;;;;;5.28;3.45;;;;;;;;;;5078197;28;20102;-70
2022/04/22 05:43:00;;;;;;;6.05;3.28;;;;;;;;;;5068480;28;20044;-70
2022/04/22 05:45:27;;;;;;;5.13;3.67;;;;;;;;;;5058319;28;20052;-70
2022/04/22 05:47:53;;;;;;;5.72;3.38;;;;;;;;;;5053061;28;20079;-70
2022/04/22 05:50:20;;;;;;;8.93;3.58;;;;;;;;;;5072753;28;20040;-70
2022/04/22 05:52:46;;;;;;;6.45;3.95;;;;;;;;;;5071458;28;20042;-71
2022/04/22 05:55:16;;;;;;;5.57;3.20;;;;;;;;;;5066784;28;20047;-70
2022/04/22 05:57:42;;;;;;;4.75;3.20;;;;;;;;;;5084887;28;20436;-70
2022/04/22 06:00:13;;;;;;;5.25;3.30;;;;;;;;;;5059777;28;20393;-70
2022/04/22 06:02:40;;;;;;;6.50;3.50;;;;;;;;;;5057971;28;20052;-70
2022/04/22 06:05:06;;;;;;;7.45;3.05;;;;;;;;;;5078683;28;20044;-70
2022/04/22 06:07:32;;;;;;;8.13;3.67;;;;;;;;;;5072165;28;20071;-70
2022/04/22 06:12:44;;;;;;;5.97;2.92;;;;;;;;;;5053118;28;20099;-70
2022/04/22 06:15:10;;;;;;;6.50;3.15;;;;;;;;;;5067885;28;20123;-70
2022/04/22 06:17:36;;;;;;;5.10;2.72;;;;;;;;;;5057634;28;20134;-70
2022/04/22 06:20:03;;;;;;;6.05;3.08;;;;;;;;;;5068717;28;20044;-70
2022/04/22 06:22:30;;;;;;;3.75;2.60;;;;;;;;;;5062355;28;20080;-70
2022/04/22 06:24:56;;;;;;;6.15;3.28;;;;;;;;;;5063117;28;20048;-70
2022/04/22 06:27:26;;;;;;;5.75;2.95;;;;;;;;;;5081873;28;20033;-70
2022/04/22 06:29:53;;;;;;;4.50;3.05;;;;;;;;;;5087784;28;20097;-70
2022/04/22 06:32:21;;;;;;;7.45;4.03;;;;;;;;;;5090750;28;20040;-70
2022/04/22 06:34:47;;;;;;;4.65;3.17;;;;;;;;;;5088835;28;20051;-70
2022/04/22 06:37:14;;;;;;;5.15;2.42;;;;;;;;;;5092066;28;20036;-70
2022/04/22 06:47:56;;;;;;;4.57;3.15;;;;;;;;;;5072031;28;20149;-70
2022/04/22 06:50:22;;;;;;;5.50;2.65;;;;;;;;;;5086234;28;20493;-70
2022/04/22 06:52:48;;;;;;;5.13;2.72;;;;;;;;;;5073454;28;20040;-70
2022/04/22 06:55:15;;;;;;;5.57;2.70;;;;;;;;;;5056466;28;20036;-70
2022/04/22 06:57:43;;;;;;;5.65;2.53;;;;;;;;;;5070906;28;20478;-70
2022/04/22 07:00:10;;;;;;;6.32;3.15;;;;;;;;;;5066450;28;20048;-71
2022/04/22 07:02:37;;;;;;;4.70;2.35;;;;;;;;;;5080024;28;20090;-70
2022/04/22 07:05:03;;;;;;;12.48;2.88;;;;;;;;;;5073298;28;20045;-70
2022/04/22 07:07:30;;;;;;;7.03;3.55;;;;;;;;;;5068669;28;20036;-70
2022/04/22 07:09:56;;;;;;;5.95;3.08;;;;;;;;;;5071759;28;20053;-71
2022/04/22 07:12:24;;;;;;;7.68;2.85;;;;;;;;;;5055904;28;20044;-70
2022/04/22 07:14:51;;;;;;;4.60;2.70;;;;;;;;;;5070301;28;20044;-70
2022/04/22 07:17:18;;;;;;;6.50;2.78;;;;;;;;;;5086056;28;20066;-71
2022/04/22 07:19:45;;;;;;;6.25;2.92;;;;;;;;;;5054272;28;20075;-70
2022/04/22 07:22:11;;;;;;;8.32;2.65;;;;;;;;;;5054622;28;20036;-70
2022/04/22 07:24:37;;;;;;;3.88;2.28;;;;;;;;;;5068803;28;20367;-70
2022/04/22 07:27:04;;;;;;;3.35;2.53;;;;;;;;;;5081310;28;20482;-70
2022/04/22 07:29:34;;;;;;;4.15;3.05;;;;;;;;;;5073109;28;20490;-70
2022/04/22 07:32:00;;;;;;;4.25;2.53;;;;;;;;;;5063728;28;20036;-71
2022/04/22 07:34:26;;;;;;;10.25;3.70;;;;;;;;;;5039242;28;20048;-70
2022/04/22 07:36:52;;;;;;;4.95;2.55;;;;;;;;;;5065990;28;20486;-70
2022/04/22 07:39:18;;;;;;;5.35;2.88;;;;;;;;;;5072854;28;20028;-70
2022/04/22 07:41:45;;;;;;;7.38;2.40;;;;;;;;;;5057246;28;20044;-70
2022/04/22 07:47:16;;;;;;;5.07;2.60;;;;;;;;;;4986436;28;20053;-70
2022/04/22 07:49:42;;;;;;;7.43;2.85;;;;;;;;;;5008269;28;20586;-70
2022/04/22 07:52:08;;;;;;;6.65;2.60;;;;;;;;;;5047674;28;20044;-71
2022/04/22 07:54:34;;;;;;;3.25;2.63;;;;;;;;;;5057007;28;20501;-70
2022/04/22 07:57:01;;;;;;;9.45;2.60;;;;;;;;;;5042531;28;20045;-71
2022/04/22 07:59:28;;;;;;;5.57;2.45;;;;;;;;;;5022734;28;20048;-71
2022/04/22 08:01:54;;;;;;;8.07;2.50;;;;;;;;;;5034906;28;20446;-70
2022/04/22 08:04:21;;;;;;;7.32;2.92;;;;;;;;;;5043383;28;20104;-70
2022/04/22 08:06:47;;;;;;;7.82;3.15;;;;;;;;;;5047771;28;20106;-71
2022/04/22 08:09:14;;;;;;;7.70;3.65;;;;;;;;;;5032741;28;20052;-71
2022/04/22 08:11:42;;;;;;;4.30;2.75;;;;;;;;;;5045298;28;20538;-71
2022/04/22 08:14:12;;;;;;;5.05;2.63;;;;;;;;;;5032989;28;20124;-71
2022/04/22 08:16:38;;;;;;;4.32;2.80;;;;;;;;;;5032619;28;20526;-71
2022/04/22 08:19:04;;;;;;;9.05;3.33;;;;;;;;;;5044550;28;20075;-70
2022/04/22 08:21:33;;;;;;;5.45;2.40;;;;;;;;;;5046959;28;20072;-70
2022/04/22 08:24:01;;;;;;;7.88;2.80;;;;;;;;;;5033786;28;20132;-70
2022/04/22 08:26:28;;;;;;;5.07;2.58;;;;;;;;;;5046060;28;20665;-70
2022/04/22 08:28:54;;;;;;;6.55;2.92;;;;;;;;;;5035597;28;20033;-70
2022/04/22 08:31:21;;;;;;;4.35;2.50;;;;;;;;;;5032605;28;20081;-70
2022/04/22 08:33:48;;;;;;;5.70;2.72;;;;;;;;;;5033108;28;20097;-71
2022/04/22 08:36:15;;;;;;;6.10;2.55;;;;;;;;;;5028525;28;20056;-70
2022/04/22 08:38:41;;;;;;;4.93;2.35;;;;;;;;;;5040065;28;20041;-71
2022/04/22 08:41:08;;;;;;;5.40;2.60;;;;;;;;;;5036954;28;20086;-70
2022/04/22 08:43:34;;;;;;;5.53;2.85;;;;;;;;;;5035728;28;20398;-70
2022/04/22 08:46:01;;;;;;;7.95;2.65;;;;;;;;;;5031664;28;20047;-70
2022/04/22 08:51:15;;;;;;;6.65;2.53;;;;;;;;;;5020868;28;20092;-71
2022/04/22 08:53:42;;;;;;;5.43;2.85;;;;;;;;;;5041536;28;20072;-71
2022/04/22 08:56:10;;;;;;;6.93;2.78;;;;;;;;;;5041747;28;20098;-70
2022/04/22 08:58:36;;;;;;;6.93;2.40;;;;;;;;;;5079016;28;20439;-70
2022/04/22 09:01:03;;;;;;;5.35;2.63;;;;;;;;;;5087214;28;20521;-70
2022/04/22 09:03:29;;;;;;;5.65;2.58;;;;;;;;;;5050830;28;20067;-71
2022/04/22 09:05:56;;;;;;;4.95;2.72;;;;;;;;;;5076204;28;20169;-70
2022/04/22 09:08:24;;;;;;;5.45;2.95;;;;;;;;;;5048207;28;20492;-71
2022/04/22 09:10:54;;;;;;;4.65;2.53;;;;;;;;;;5056774;28;20075;-70
2022/04/22 09:13:27;;;;;;;4.65;2.28;;;;;;;;;;5072266;28;20078;-70
2022/04/22 09:15:54;;;;;;;5.03;2.63;;;;;;;;;;5053446;28;20101;-71
2022/04/22 09:18:23;;;;;;;8.70;3.22;;;;;;;;;;5069333;28;20123;-70
2022/04/22 09:20:49;;;;;;;8.35;3.05;;;;;;;;;;5072643;28;20147;-70
2022/04/22 09:23:23;;;;;;;6.82;2.58;;;;;;;;;;5081367;28;20497;-71
2022/04/22 09:25:49;;;;;;;7.13;2.72;;;;;;;;;;5053256;28;20106;-70
2022/04/22 09:28:15;;;;;;;6.97;2.50;;;;;;;;;;5071245;28;20544;-70
2022/04/22 09:30:42;;;;;;;3.92;2.30;;;;;;;;;;5053734;28;20056;-71
2022/04/22 09:33:09;;;;;;;7.82;2.28;;;;;;;;;;5075845;28;20297;-71
2022/04/22 09:42:39;;;;;;;5.72;2.92;;;;;;;;;;5060038;28;20048;-70
2022/04/22 09:43:52;;;;;;;4.72;2.22;;;;;;;;;;5065661;28;20174;-70
2022/04/22 09:46:23;;;;;;;6.88;3.10;;;;;;;;;;5084719;28;20040;-70
2022/04/22 09:48:49;;;;;;;4.68;2.47;;;;;;;;;;5057868;28;20502;-71
2022/04/22 09:51:27;;;;;;;5.30;2.60;;;;;;;;;;5081328;28;20101;-71
2022/04/22 09:54:14;;;;;;;6.38;2.45;;;;;;;;;;5061415;28;20173;-70
2022/04/22 09:56:55;;;;;;;4.72;2.78;;;;;;;;;;5071687;28;20101;-70
2022/04/22 09:59:22;;;;;;;5.95;3.22;;;;;;;;;;5043870;28;20067;-70
2022/04/22 10:01:49;;;;;;;4.15;2.30;;;;;;;;;;5059056;28;20036;-70
2022/04/22 10:04:18;;;;;;;7.32;2.47;;;;;;;;;;5072181;28;20420;-71
2022/04/22 10:06:45;;;;;;;5.03;3.03;;;;;;;;;;5063161;28;20040;-70
2022/04/22 10:09:14;;;;;;;5.97;2.83;;;;;;;;;;5046369;28;20111;-70
2022/04/22 10:11:41;;;;;;;4.07;2.70;;;;;;;;;;5055916;28;20559;-70
2022/04/22 10:14:11;;;;;;;5.20;2.80;;;;;;;;;;5065503;28;20050;-70
2022/04/22 10:16:37;;;;;;;8.18;3.47;;;;;;;;;;5081604;28;20033;-70
2022/04/22 10:19:05;;;;;;;6.57;3.17;;;;;;;;;;5067450;28;20055;-71
2022/04/22 10:21:31;;;;;;;6.47;3.25;;;;;;;;;;5051655;28;20052;-70
2022/04/22 10:23:58;;;;;;;6.22;2.90;;;;;;;;;;5072649;28;20110;-71
2022/04/22 10:26:27;;;;;;;8.77;3.60;;;;;;;;;;5067638;28;20068;-70
2022/04/22 10:28:55;;;;;;;4.88;2.92;;;;;;;;;;5066395;28;20052;-71
2022/04/22 10:31:22;;;;;;;6.07;3.10;;;;;;;;;;5084584;28;20497;-69
2022/04/22 10:33:48;;;;;;;4.82;3.40;;;;;;;;;;5083583;28;20044;-70
2022/04/22 10:36:15;;;;;;;5.32;2.97;;;;;;;;;;5086837;28;20036;-70
2022/04/22 10:38:45;;;;;;;6.03;3.10;;;;;;;;;;5060554;28;20390;-70
2022/04/22 10:41:19;;;;;;;5.90;3.67;;;;;;;;;;5078436;28;20038;-70
2022/04/22 10:47:13;;;;;;;7.28;3.60;;;;;;;;;;5078567;28;20596;-70
2022/04/22 10:49:19;;;;;;;6.28;3.80;;;;;;;;;;5059289;28;20517;-70
2022/04/22 10:52:00;;;;;;;5.88;3.53;;;;;;;;;;5080057;28;20044;-70
2022/04/22 10:54:45;;;;;;;7.82;4.18;;;;;;;;;;5066110;28;20044;-70
2022/04/22 10:57:24;;;;;;;5.88;3.40;;;;;;;;;;5081726;28;20044;-70
2022/04/22 11:00:03;;;;;;;7.22;3.63;;;;;;;;;;5051926;28;20131;-70
2022/04/22 11:02:30;;;;;;;12.25;4.82;;;;;;;;;;5077658;28;20051;-71
2022/04/22 11:05:14;;;;;;;8.75;4.35;;;;;;;;;;5082990;28;20046;-70
2022/04/22 11:07:55;;;;;;;5.30;3.40;;;;;;;;;;5068029;28;20137;-70
2022/04/22 11:10:22;;;;;;;5.47;3.35;;;;;;;;;;5065771;28;20044;-71
2022/04/22 11:12:52;;;;;;;6.65;3.88;;;;;;;;;;5066403;28;20039;-70
2022/04/22 11:15:37;;;;;;;10.48;4.97;;;;;;;;;;5086546;28;20036;-70
2022/04/22 11:18:03;;;;;;;5.38;3.47;;;;;;;;;;5065888;28;20100;-70
2022/04/22 11:20:29;;;;;;;6.25;3.45;;;;;;;;;;5085999;28;20036;-70
2022/04/22 11:22:56;;;;;;;10.40;4.90;;;;;;;;;;5084807;28;20682;-70
2022/04/22 11:25:25;;;;;;;5.03;3.90;;;;;;;;;;5084403;28;20032;-70
2022/04/22 11:27:55;;;;;;;7.97;4.45;;;;;;;;;;5068091;28;20040;-70
2022/04/22 11:30:22;;;;;;;7.57;4.50;;;;;;;;;;5083646;28;20041;-71
2022/04/22 11:32:50;;;;;;;8.07;4.10;;;;;;;;;;5085471;28;21637;-70
2022/04/22 11:35:20;;;;;;;6.50;4.25;;;;;;;;;;5067010;28;20046;-71
2022/04/22 11:38:07;;;;;;;7.18;4.15;;;;;;;;;;5064609;28;20580;-70
2022/04/22 11:40:37;;;;;;;6.35;3.95;;;;;;;;;;5085077;28;20044;-70
2022/04/22 11:43:10;;;;;;;6.18;4.65;;;;;;;;;;5081270;28;20036;-70
2022/04/22 11:45:41;;;;;;;13.18;5.18;;;;;;;;;;5079669;28;20044;-70
2022/04/22 11:48:11;;;;;;;7.10;4.30;;;;;;;;;;5087768;28;20256;-70
2022/04/22 11:50:41;;;;;;;13.60;4.95;;;;;;;;;;5076901;28;20044;-70
2022/04/22 11:53:22;;;;;;;7.68;4.22;;;;;;;;;;5086309;28;20116;-70
2022/04/22 11:55:49;;;;;;;10.07;4.90;;;;;;;;;;5064948;28;20059;-70
2022/04/22 11:58:16;;;;;;;9.35;4.15;;;;;;;;;;5066298;28;20067;-70
2022/04/22 12:06:16;;;;;;;6.78;3.88;;;;;;;;;;5063721;28;20048;-69
2022/04/22 12:08:52;;;;;;;7.03;3.97;;;;;;;;;;5084400;28;20123;-70
2022/04/22 12:11:18;;;;;;;8.75;4.03;;;;;;;;;;5069707;28;20036;-70
2022/04/22 12:13:48;;;;;;;8.65;4.40;;;;;;;;;;5087955;28;20192;-70
2022/04/22 12:16:19;;;;;;;8.65;4.30;;;;;;;;;;5081590;28;20143;-70
2022/04/22 12:18:47;;;;;;;9.00;4.45;;;;;;;;;;5066852;28;20052;-70
2022/04/22 12:21:13;;;;;;;5.65;4.47;;;;;;;;;;5085939;28;20040;-70
2022/04/22 12:23:41;;;;;;;8.63;4.75;;;;;;;;;;5068443;28;20153;-70
2022/04/22 12:26:14;;;;;;;7.53;4.45;;;;;;;;;;5056683;28;20404;-70
2022/04/22 12:28:58;;;;;;;7.68;4.00;;;;;;;;;;5086447;28;20028;-70
2022/04/22 12:31:29;;;;;;;9.75;4.80;;;;;;;;;;5062882;28;20532;-70
2022/04/22 12:33:58;;;;;;;7.85;3.70;;;;;;;;;;5063847;28;20040;-70
2022/04/22 12:36:24;;;;;;;5.57;3.90;;;;;;;;;;5076264;28;20028;-69
2022/04/22 12:38:50;;;;;;;6.57;4.03;;;;;;;;;;5058295;28;20102;-68
2022/04/22 12:41:23;;;;;;;6.18;4.38;;;;;;;;;;5057247;28;20036;-67
2022/04/22 12:43:51;;;;;;;5.82;4.28;;;;;;;;;;5081809;28;20553;-68
2022/04/22 12:52:08;;;;;;;8.38;4.28;;;;;;;;;;5066888;28;20818;-69
2022/04/22 12:54:35;;;;;;;10.43;5.68;;;;;;;;;;5069492;28;20032;-68
2022/04/22 12:57:01;;;;;;;10.63;5.38;;;;;;;;;;5089640;28;20044;-69
2022/04/22 12:59:44;;;;;;;11.10;4.03;;;;;;;;;;5070828;28;20048;-69
2022/04/22 13:02:11;;;;;;;10.50;5.70;;;;;;;;;;5067526;28;20040;-69
2022/04/22 13:04:56;;;;;;;9.80;5.15;;;;;;;;;;5082529;28;20084;-69
2022/04/22 13:07:23;;;;;;;10.25;4.90;;;;;;;;;;5070072;28;20117;-69
2022/04/22 13:09:49;;;;;;;13.88;5.20;;;;;;;;;;5087866;28;20047;-68
2022/04/22 13:12:16;;;;;;;9.93;4.43;;;;;;;;;;5066257;28;20122;-69
2022/04/22 13:14:42;;;;;;;8.50;5.30;;;;;;;;;;5087463;28;20039;-67
2022/04/22 13:17:21;;;;;;;11.38;5.78;;;;;;;;;;5088691;28;20407;-69
2022/04/22 13:19:47;;;;;;;7.97;5.10;;;;;;;;;;5067278;28;20112;-68
2022/04/22 13:22:14;;;;;;;8.00;5.35;;;;;;;;;;5088211;28;20168;-70
2022/04/22 13:24:44;;;;;;;7.35;4.63;;;;;;;;;;5088294;28;20044;-70
2022/04/22 13:27:10;;;;;;;8.57;5.10;;;;;;;;;;5072276;28;20058;-70
2022/04/22 13:29:36;;;;;;;10.70;4.45;;;;;;;;;;5080556;28;20125;-70
2022/04/22 13:32:02;;;;;;;12.65;5.80;;;;;;;;;;5079380;28;20269;-71
2022/04/22 13:34:29;;;;;;;7.25;4.43;;;;;;;;;;5065251;28;20051;-70
2022/04/22 13:36:55;;;;;;;9.38;5.05;;;;;;;;;;5076339;28;20036;-70
2022/04/22 13:39:21;;;;;;;12.75;5.80;;;;;;;;;;5067538;28;20036;-70
2022/04/22 13:41:47;;;;;;;11.10;5.72;;;;;;;;;;5059098;28;20094;-71
2022/04/22 13:52:20;;;;;;;9.23;5.05;;;;;;;;;;5054385;28;20248;-70
2022/04/22 13:52:29;;;;;;;10.93;5.63;;;;;;;;;;5066267;28;20504;-70
2022/04/22 13:54:55;;;;;;;11.10;5.60;;;;;;;;;;5083361;28;20383;-69
2022/04/22 13:57:21;;;;;;;7.97;5.15;;;;;;;;;;5070597;28;20464;-69
2022/04/22 13:59:48;;;;;;;9.68;5.70;;;;;;;;;;5070727;28;20048;-69
2022/04/22 14:02:16;;;;;;;11.95;5.60;;;;;;;;;;5083698;28;20159;-69
2022/04/22 14:04:42;;;;;;;10.88;5.90;;;;;;;;;;5070077;28;20063;-70
2022/04/22 14:07:09;;;;;;;10.50;6.85;;;;;;;;;;5057815;28;20032;-69
2022/04/22 14:09:35;;;;;;;9.55;5.38;;;;;;;;;;5051558;28;20486;-70
2022/04/22 14:12:02;;;;;;;10.57;5.78;;;;;;;;;;5069258;28;20054;-70
2022/04/22 14:14:28;;;;;;;8.88;5.78;;;;;;;;;;5074505;28;20478;-69
2022/04/22 14:16:54;;;;;;;9.45;5.72;;;;;;;;;;5078338;28;20089;-70
2022/04/22 14:19:22;;;;;;;10.77;5.95;;;;;;;;;;5084986;28;20127;-70
2022/04/22 14:21:48;;;;;;;10.80;5.95;;;;;;;;;;5083837;28;20044;-70
2022/04/22 14:24:14;;;;;;;10.05;5.78;;;;;;;;;;5056046;28;20566;-70
2022/04/22 14:26:41;;;;;;;9.18;5.97;;;;;;;;;;5061305;28;20556;-70
2022/04/22 14:29:07;;;;;;;8.70;5.18;;;;;;;;;;5083852;28;20520;-68
2022/04/22 14:31:34;;;;;;;12.55;7.20;;;;;;;;;;5082869;28;20441;-68
2022/04/22 14:34:00;;;;;;;9.82;6.80;;;;;;;;;;5063583;28;20040;-70
2022/04/22 14:36:26;;;;;;;12.07;6.00;;;;;;;;;;5066053;28;20047;-68
2022/04/22 14:38:53;;;;;;;11.23;5.82;;;;;;;;;;5062722;28;20511;-69
2022/04/22 14:41:19;;;;;;;9.85;5.50;;;;;;;;;;5067920;28;20096;-70
2022/04/22 14:43:45;;;;;;;13.05;6.40;;;;;;;;;;5082220;28;20058;-68
2022/04/22 14:46:16;;;;;;;11.77;5.70;;;;;;;;;;5068737;28;20040;-68
2022/04/22 14:48:43;;;;;;;9.88;6.03;;;;;;;;;;5051301;28;20127;-68
2022/04/22 14:51:09;;;;;;;8.48;6.65;;;;;;;;;;5087640;28;20070;-68
2022/04/22 14:53:36;;;;;;;11.70;6.60;;;;;;;;;;5084034;28;20505;-68
2022/04/22 14:56:02;;;;;;;9.02;6.28;;;;;;;;;;5088538;28;20089;-70
2022/04/22 14:58:28;;;;;;;8.98;6.32;;;;;;;;;;5084275;28;20052;-68
2022/04/22 15:00:55;;;;;;;10.50;6.07;;;;;;;;;;5063352;28;20124;-69
2022/04/22 15:03:21;;;;;;;8.20;5.43;;;;;;;;;;5080188;28;20097;-70
2022/04/22 15:05:47;;;;;;;10.65;6.25;;;;;;;;;;5069151;28;20044;-70
2022/04/22 15:08:13;;;;;;;9.65;6.05;;;;;;;;;;5069440;28;20119;-69
2022/04/22 15:10:41;;;;;;;8.63;5.03;;;;;;;;;;5050310;28;20043;-70
2022/04/22 15:13:09;;;;;;;10.10;5.55;;;;;;;;;;5069254;28;20046;-70
2022/04/22 15:15:35;;;;;;;9.48;5.85;;;;;;;;;;5085682;28;20470;-70
2022/04/22 15:26:16;;;;;;;11.68;6.55;;;;;;;;;;5084037;28;20040;-70
2022/04/22 15:28:43;;;;;;;16.33;6.78;;;;;;;;;;5069934;28;20039;-70
2022/04/22 15:31:14;;;;;;;8.43;5.78;;;;;;;;;;5055511;28;20051;-70
2022/04/22 15:33:44;;;;;;;8.05;5.95;;;;;;;;;;5060373;28;20032;-70
2022/04/22 15:36:11;;;;;;;10.13;5.63;;;;;;;;;;5063689;28;20401;-70
2022/04/22 15:38:38;;;;;;;9.60;6.22;;;;;;;;;;5069727;28;20040;-70
2022/04/22 15:41:05;;;;;;;10.73;5.45;;;;;;;;;;5067177;28;20340;-70
2022/04/22 15:43:33;;;;;;;10.27;6.40;;;;;;;;;;5087759;28;20042;-70
2022/04/22 15:45:59;;;;;;;9.23;5.55;;;;;;;;;;5088480;28;20192;-70
2022/04/22 15:48:26;;;;;;;10.10;7.60;;;;;;;;;;5066639;28;20517;-70
2022/04/22 15:50:53;;;;;;;11.27;6.10;;;;;;;;;;5084082;28;20075;-70
2022/04/22 15:53:19;;;;;;;10.70;5.07;;;;;;;;;;5061008;28;20039;-70
2022/04/22 15:55:45;;;;;;;13.27;6.57;;;;;;;;;;5065763;28;20035;-70
2022/04/22 15:58:11;;;;;;;12.48;5.75;;;;;;;;;;5062894;28;20049;-71